Terminal Aerodrome Forecast
Issued by NWS

Home | Current Version | Previous Version | Text Only | Print | Product List | Glossary On
Versions: 1 2 3 4 5 6 7 8 9 10 11 12 13 14 15 16
230
FTUS46 KHNX 201934 AAA
TAFBFL
TAF AMD
KBFL 201934Z 2020/2118 11006KT 3SM -RA BKN050 OVC080
      TEMPO 2020/2021 2SM RA BKN025
     FM202100 24011KT P6SM -SHRA SCT025 BKN040
      TEMPO 2021/2024 3SM TSRAPL BKN025CB
     FM210300 01010KT P6SM -SHRA OVC040
     FM211500 33006KT 5SM BR BKN050=

USA.gov is the U.S. government's official web portal to all federal, state and local government web resources and services.